createdAt,value
2023-11-24T00:00:28.781Z,90.09
2023-11-24T00:04:40.476Z,89.97
2023-11-24T00:08:52.147Z,89.92
2023-11-24T00:13:03.836Z,90.43
2023-11-24T00:17:15.593Z,90.49
2023-11-24T00:21:27.338Z,90.65
2023-11-24T00:25:39.447Z,90.78
2023-11-24T00:29:51.512Z,90.78
2023-11-24T00:34:04.577Z,91.00
2023-11-24T00:38:17.083Z,91.17
2023-11-24T00:42:30.616Z,90.61
2023-11-24T00:46:42.480Z,90.33
2023-11-24T00:50:55.492Z,90.22
2023-11-24T00:55:07.667Z,89.80
2023-11-24T00:59:19.477Z,90.41
2023-11-24T01:03:32.207Z,90.52
2023-11-24T01:07:44.743Z,90.94
2023-11-24T01:11:56.794Z,90.78
2023-11-24T01:16:09.262Z,91.08
2023-11-24T01:20:22.740Z,91.46
2023-11-24T01:24:34.445Z,91.94
2023-11-24T01:28:46.118Z,92.48
2023-11-24T01:32:57.850Z,92.65
2023-11-24T01:37:09.687Z,93.03
2023-11-24T01:41:21.960Z,93.20
2023-11-24T01:45:33.645Z,93.85
2023-11-24T01:49:47.055Z,93.68
2023-11-24T01:53:59.656Z,93.99
2023-11-24T01:58:11.369Z,94.28
2023-11-24T02:02:23.203Z,94.42
2023-11-24T02:06:35.192Z,94.53
2023-11-24T02:10:47.124Z,94.30
2023-11-24T02:14:58.794Z,94.15
2023-11-24T02:19:12.786Z,93.61
2023-11-24T02:23:24.617Z,93.47
2023-11-24T02:27:36.716Z,93.03
2023-11-24T02:31:48.909Z,92.62
2023-11-24T02:36:06.663Z,92.66
2023-11-24T02:40:18.837Z,92.36
2023-11-24T02:44:30.669Z,92.44
2023-11-24T02:48:44.822Z,92.93
2023-11-24T02:52:56.638Z,92.81
2023-11-24T02:57:08.417Z,93.20
2023-11-24T03:01:20.052Z,92.88
2023-11-24T03:05:31.782Z,92.66
2023-11-24T03:09:43.473Z,92.23
2023-11-24T03:13:55.254Z,92.15
2023-11-24T03:18:07.774Z,91.86
2023-11-24T03:22:19.532Z,91.39
2023-11-24T03:26:31.380Z,91.06
2023-11-24T03:30:43.359Z,90.75
2023-11-24T03:34:56.907Z,91.13
2023-11-24T03:39:15.149Z,91.46
2023-11-24T03:43:27.364Z,91.63
2023-11-24T03:47:40.784Z,91.78
2023-11-24T03:51:52.526Z,92.02
2023-11-24T03:56:07.967Z,92.65
2023-11-24T04:00:20.088Z,92.70
2023-11-24T04:04:31.714Z,92.42
2023-11-24T04:08:44.037Z,93.15
2023-11-24T04:12:55.691Z,93.68
2023-11-24T04:17:08.586Z,94.53
2023-11-24T04:21:21.386Z,94.42
2023-11-24T04:25:33.061Z,94.86
2023-11-24T04:29:44.725Z,95.16
2023-11-24T04:33:56.731Z,94.53
2023-11-24T04:38:08.441Z,94.20
2023-11-24T04:42:21.692Z,93.88
2023-11-24T04:46:34.389Z,93.96
2023-11-24T04:50:46.225Z,94.09
2023-11-24T04:54:58.117Z,93.64
2023-11-24T04:59:09.925Z,93.48
2023-11-24T05:03:21.684Z,93.07
2023-11-24T05:07:33.339Z,92.05
2023-11-24T05:11:45.041Z,91.50
2023-11-24T05:15:59.616Z,90.11
2023-11-24T05:20:13.821Z,89.43
2023-11-24T05:24:25.645Z,89.32
2023-11-24T05:28:37.545Z,88.80
2023-11-24T05:32:49.316Z,88.73
2023-11-24T05:37:08.850Z,88.65
2023-11-24T05:41:21.402Z,88.81
2023-11-24T05:45:36.003Z,89.22
2023-11-24T05:49:49.614Z,91.27
2023-11-24T05:54:01.321Z,92.03
2023-11-24T05:58:13.207Z,93.68
2023-11-24T06:02:25.825Z,94.69
2023-11-24T06:06:37.683Z,95.43
2023-11-24T06:10:49.321Z,95.51
2023-11-24T06:15:01.032Z,96.23
2023-11-24T06:19:12.731Z,96.98
2023-11-24T06:23:24.399Z,97.26
2023-11-24T06:27:37.551Z,97.30
2023-11-24T06:31:49.263Z,97.55
2023-11-24T06:36:04.081Z,97.56
2023-11-24T06:40:19.024Z,98.46
2023-11-24T06:44:30.753Z,99.26
2023-11-24T06:48:42.367Z,100.00
2023-11-24T06:52:54.733Z,100.00
2023-11-24T06:57:06.417Z,100.00
2023-11-24T07:01:28.697Z,100.00
2023-11-24T07:05:40.595Z,100.00
2023-11-24T07:09:52.267Z,100.00
2023-11-24T07:14:04.023Z,100.00
2023-11-24T07:18:15.749Z,100.00
2023-11-24T07:22:28.465Z,100.00
2023-11-24T07:26:40.121Z,100.00
2023-11-24T07:30:51.929Z,100.00
2023-11-24T07:35:04.533Z,100.00
2023-11-24T07:39:16.295Z,100.00
2023-11-24T07:43:27.913Z,100.00
2023-11-24T07:47:40.865Z,100.00
2023-11-24T07:51:53.056Z,100.00
2023-11-24T07:56:07.676Z,100.00
2023-11-24T08:00:20.094Z,100.00
2023-11-24T08:04:31.903Z,100.00
2023-11-24T08:08:43.689Z,100.00
2023-11-24T08:12:55.417Z,99.91
2023-11-24T08:17:07.313Z,99.82
2023-11-24T08:21:19.917Z,99.07
2023-11-24T08:25:31.588Z,98.84
2023-11-24T08:29:43.318Z,98.29
2023-11-24T08:33:55.063Z,97.82
2023-11-24T08:38:06.752Z,98.47
2023-11-24T08:42:18.505Z,98.96
2023-11-24T08:46:30.362Z,99.06
2023-11-24T08:50:42.503Z,98.96
2023-11-24T08:54:54.416Z,99.25
2023-11-24T08:59:09.624Z,99.09
2023-11-24T09:03:25.807Z,100.00
2023-11-24T09:07:38.016Z,100.00
2023-11-24T09:11:49.738Z,100.00
2023-11-24T09:16:03.797Z,99.79
2023-11-24T09:20:18.366Z,99.60
2023-11-24T09:24:30.414Z,99.73
2023-11-24T09:28:42.190Z,98.80
2023-11-24T09:32:55.648Z,98.43
2023-11-24T09:37:07.515Z,98.44
2023-11-24T09:41:20.487Z,98.67
2023-11-24T09:45:32.680Z,97.50
2023-11-24T09:49:44.503Z,94.22
2023-11-24T09:53:56.912Z,89.28
2023-11-24T09:58:08.733Z,86.28
2023-11-24T10:02:23.967Z,83.57
2023-11-24T10:06:40.511Z,81.66
2023-11-24T10:10:52.489Z,82.57
2023-11-24T10:15:05.429Z,83.29
2023-11-24T10:19:20.581Z,83.65
2023-11-24T10:23:34.996Z,84.32
2023-11-24T10:27:46.678Z,85.06
2023-11-24T10:31:58.514Z,85.78
2023-11-24T10:36:10.921Z,87.25
2023-11-24T10:40:24.077Z,87.57
2023-11-24T10:44:43.632Z,86.69
2023-11-24T10:49:13.911Z,85.01
2023-11-24T10:53:50.317Z,85.36
2023-11-24T10:58:03.211Z,84.65
2023-11-24T11:02:17.920Z,84.42
2023-11-24T11:06:40.479Z,84.14
2023-11-24T11:11:07.632Z,84.22
2023-11-24T11:15:25.412Z,84.88
2023-11-24T11:19:37.150Z,85.13
2023-11-24T11:23:58.646Z,85.98
2023-11-24T11:28:20.439Z,85.82
2023-11-24T11:32:34.250Z,85.25
2023-11-24T11:36:51.319Z,85.52
2023-11-24T11:41:05.763Z,85.72
2023-11-24T11:45:17.546Z,85.61
2023-11-24T11:49:30.950Z,84.07
2023-11-24T11:53:43.918Z,82.79
2023-11-24T11:57:56.463Z,81.43
2023-11-24T12:02:10.147Z,79.65
2023-11-24T12:06:22.020Z,79.08
2023-11-24T12:10:33.697Z,77.56
2023-11-24T12:14:49.316Z,76.03
2023-11-24T12:19:05.736Z,76.09
2023-11-24T12:23:18.272Z,75.70
2023-11-24T12:27:30.018Z,74.41
2023-11-24T12:31:43.720Z,74.86
2023-11-24T12:36:00.358Z,75.01
2023-11-24T12:40:12.932Z,74.69
2023-11-24T12:44:30.297Z,74.49
2023-11-24T12:48:42.579Z,74.81
2023-11-24T12:52:55.173Z,75.50
2023-11-24T12:57:07.646Z,74.29
2023-11-24T13:01:19.504Z,72.71
2023-11-24T13:05:31.184Z,72.13
2023-11-24T13:09:42.798Z,72.74
2023-11-24T13:13:54.888Z,73.25
2023-11-24T13:18:06.532Z,74.51
2023-11-24T13:22:18.194Z,75.79
2023-11-24T13:26:30.138Z,75.57
2023-11-24T13:30:41.707Z,76.17
2023-11-24T13:34:54.094Z,76.38
2023-11-24T13:39:07.435Z,76.48
2023-11-24T13:43:20.314Z,76.06
2023-11-24T13:47:32.984Z,75.35
2023-11-24T13:51:46.414Z,75.13
2023-11-24T13:55:59.880Z,75.98
2023-11-24T14:00:12.672Z,76.79
2023-11-24T14:04:24.481Z,77.41
2023-11-24T14:08:39.462Z,78.22
2023-11-24T14:12:51.096Z,78.95
2023-11-24T14:17:03.274Z,79.03
2023-11-24T14:21:14.937Z,79.46
2023-11-24T14:25:26.532Z,79.45
2023-11-24T14:29:38.158Z,79.05
2023-11-24T14:38:02.553Z,79.08
2023-11-24T14:42:15.973Z,79.58
2023-11-24T14:46:31.385Z,79.66
2023-11-24T14:50:43.017Z,79.84
2023-11-24T14:54:56.495Z,80.05
2023-11-24T14:59:09.938Z,80.15
2023-11-24T15:03:23.735Z,80.60
2023-11-24T15:07:36.970Z,81.94
2023-11-24T15:11:53.047Z,83.60
2023-11-24T15:16:13.117Z,86.07
2023-11-24T15:20:33.250Z,86.86
2023-11-24T15:24:44.820Z,88.09
2023-11-24T15:28:57.048Z,89.45
2023-11-24T15:33:09.648Z,90.68
2023-11-24T15:37:21.346Z,90.58
2023-11-24T15:41:49.620Z,90.83
2023-11-24T15:46:01.671Z,91.71
2023-11-24T15:50:15.709Z,92.72
2023-11-24T15:54:27.957Z,93.79
2023-11-24T15:58:43.480Z,94.04
2023-11-24T16:02:55.094Z,94.49
2023-11-24T16:07:09.444Z,94.65
2023-11-24T16:11:32.970Z,95.41
2023-11-24T16:15:44.571Z,95.34
2023-11-24T16:19:56.471Z,95.14
2023-11-24T16:24:08.351Z,94.40
2023-11-24T16:28:19.918Z,94.07
2023-11-24T16:32:33.819Z,93.49
2023-11-24T16:36:46.101Z,92.87
2023-11-24T16:40:58.846Z,94.07
2023-11-24T16:45:11.539Z,94.46
2023-11-24T16:49:23.490Z,95.18
2023-11-24T16:53:35.147Z,95.66
2023-11-24T16:57:46.989Z,95.67
2023-11-24T17:02:07.907Z,95.55
2023-11-24T17:06:19.732Z,95.04
2023-11-24T17:10:31.804Z,94.93
2023-11-24T17:14:46.225Z,94.53
2023-11-24T17:18:57.872Z,94.31
2023-11-24T17:23:16.711Z,94.46
2023-11-24T17:27:29.363Z,94.47
2023-11-24T17:31:43.429Z,94.31
2023-11-24T17:35:55.166Z,94.28
2023-11-24T17:40:09.555Z,94.71
2023-11-24T17:44:21.311Z,94.48
2023-11-24T17:48:33.461Z,94.90
2023-11-24T17:52:45.052Z,94.93
2023-11-24T17:56:57.921Z,94.72
2023-11-24T18:01:09.600Z,95.04
2023-11-24T18:05:22.713Z,95.10
2023-11-24T18:09:34.462Z,95.14
2023-11-24T18:13:46.960Z,94.71
2023-11-24T18:17:58.607Z,94.21
2023-11-24T18:22:10.318Z,94.19
2023-11-24T18:26:21.893Z,93.46
2023-11-24T18:30:34.339Z,93.55
2023-11-24T18:34:45.999Z,93.52
2023-11-24T18:38:57.582Z,93.58
2023-11-24T18:43:09.219Z,93.75
2023-11-24T18:47:22.921Z,92.67
2023-11-24T18:51:35.775Z,91.30
2023-11-24T18:55:47.438Z,90.65
2023-11-24T18:59:59.101Z,90.40
2023-11-24T19:04:10.924Z,89.68
2023-11-24T19:08:22.548Z,87.67
2023-11-24T19:12:34.094Z,86.42
2023-11-24T19:16:46.900Z,85.73
2023-11-24T19:21:02.978Z,87.16
2023-11-24T19:25:21.858Z,89.43
2023-11-24T19:29:33.456Z,91.10
2023-11-24T19:33:44.994Z,91.68
2023-11-24T19:37:56.574Z,92.96
2023-11-24T19:42:08.172Z,93.07
2023-11-24T19:46:20.183Z,94.77
2023-11-24T19:50:31.760Z,95.41
2023-11-24T19:54:43.493Z,96.11
2023-11-24T19:58:54.995Z,97.00
2023-11-24T20:03:06.697Z,97.83
2023-11-24T20:07:19.381Z,98.07
2023-11-24T20:11:31.455Z,98.20
2023-11-24T20:15:44.925Z,98.28
2023-11-24T20:19:57.330Z,98.14
2023-11-24T20:24:09.747Z,98.30
2023-11-24T20:28:21.327Z,98.01
2023-11-24T20:32:33.043Z,97.76
2023-11-24T20:36:45.017Z,97.72
2023-11-24T20:40:56.704Z,97.93
2023-11-24T20:45:10.734Z,97.77
2023-11-24T20:49:22.380Z,97.83
2023-11-24T20:53:34.225Z,98.26
2023-11-24T20:57:45.875Z,97.82
2023-11-24T21:01:58.272Z,97.76
2023-11-24T21:06:10.790Z,97.60
2023-11-24T21:10:22.500Z,96.72
2023-11-24T21:14:34.200Z,96.35
2023-11-24T21:18:45.753Z,96.23
2023-11-24T21:22:57.945Z,96.62
2023-11-24T21:27:09.577Z,97.37
2023-11-24T21:31:21.356Z,96.94
2023-11-24T21:35:32.949Z,96.83
2023-11-24T21:39:46.026Z,96.52
2023-11-24T21:43:57.609Z,96.94
2023-11-24T21:48:13.322Z,96.89
2023-11-24T21:52:27.511Z,97.97
2023-11-24T21:56:39.224Z,98.79
2023-11-24T22:00:50.922Z,99.08
2023-11-24T22:05:04.285Z,99.56
2023-11-24T22:09:15.836Z,99.58
2023-11-24T22:13:52.456Z,100.00
2023-11-24T22:18:37.461Z,99.79
2023-11-24T22:28:46.621Z,99.96
2023-11-24T22:32:58.326Z,100.00
2023-11-24T22:37:11.553Z,100.00
2023-11-24T22:41:24.284Z,100.00
2023-11-24T22:45:35.881Z,100.00
2023-11-24T22:49:47.398Z,100.00
2023-11-24T22:53:58.921Z,100.00
2023-11-24T22:58:11.243Z,100.00
2023-11-24T23:02:24.166Z,100.00
2023-11-24T23:06:35.901Z,100.00
2023-11-24T23:10:47.518Z,100.00
2023-11-24T23:15:00.712Z,100.00
2023-11-24T23:19:12.969Z,100.00
2023-11-24T23:23:27.692Z,99.72
2023-11-24T23:27:40.568Z,100.00
2023-11-24T23:31:52.276Z,100.00
2023-11-24T23:36:04.723Z,100.00
2023-11-24T23:40:20.670Z,100.00
2023-11-24T23:44:32.246Z,100.00
2023-11-24T23:48:43.819Z,100.00
2023-11-24T23:52:56.131Z,100.00
2023-11-24T23:57:07.670Z,100.00
